Terminal Aerodrome Forecast
Issued by NWS North Platte, NE

Home | Current Version | Previous Version | Text Only | Print | Product List | Glossary Off
Versions: 1 2 3 4 5 6 7 8 9 10 11 12 13 14 15 16 17 18 19 20 21 22 23 24 25 26 27 28 29

501
FTUS43 KLBF 110828 AAA
TAFVTN
TAF AMD
KVTN 110828Z 1108/1206 VRB04KT P6SM OVC005
     FM111500 17005KT P6SM OVC012
     FM111800 21007KT P6SM SCT025 BKN120
     FM112300 33010KT P6SM BKN120
     FM120200 01008KT P6SM OVC015=

USA.gov is the U.S. government's official web portal to all federal, state and local government web resources and services.